Time;durP1;ratioP1;P1;durP2;ratioP2;P2;SDS_P1;SDS_P2;PMS_P1;PMS_P2;Temp;Humidity;BMP_temperature;BMP_pressure;BME280_temperature;BME280_humidity;BME280_pressure;Samples;Min_cycle;Max_cycle;Signal;HPM_P1;HPM_P2
2023/05/07 00:00:19;;;;;;;2.60;2.30;;;13.80;99.90;;;;;;5072539;28;20462;-81
2023/05/07 00:02:45;;;;;;;2.50;2.05;;;13.80;99.90;;;;;;5083751;28;20036;-83
2023/05/07 00:05:11;;;;;;;2.47;2.00;;;13.80;99.90;;;;;;5069113;28;20036;-81
2023/05/07 00:07:37;;;;;;;3.50;2.50;;;13.80;99.90;;;;;;5073003;28;20085;-76
2023/05/07 00:10:03;;;;;;;2.45;2.25;;;13.70;99.90;;;;;;5067331;28;20029;-82
2023/05/07 00:12:31;;;;;;;3.70;2.28;;;13.70;99.90;;;;;;5052695;28;20048;-83
2023/05/07 00:14:57;;;;;;;3.17;2.88;;;13.60;99.90;;;;;;5065771;28;20415;-82
2023/05/07 00:17:23;;;;;;;4.65;2.97;;;13.60;99.90;;;;;;5065294;28;20028;-83
2023/05/07 00:19:48;;;;;;;3.22;2.70;;;13.60;99.90;;;;;;5071606;28;20029;-82
2023/05/07 00:22:14;;;;;;;3.25;2.60;;;13.50;99.90;;;;;;5069341;28;20020;-83
2023/05/07 00:24:39;;;;;;;4.50;3.38;;;13.50;99.90;;;;;;5072602;28;20393;-74
2023/05/07 00:27:05;;;;;;;4.38;3.13;;;13.50;99.90;;;;;;5077417;28;20043;-82
2023/05/07 00:29:31;;;;;;;3.63;2.90;;;13.50;99.90;;;;;;5073031;28;20025;-83
2023/05/07 00:31:56;;;;;;;3.25;2.80;;;13.50;99.90;;;;;;5071552;28;20868;-81
2023/05/07 00:34:22;;;;;;;4.05;3.30;;;13.40;99.90;;;;;;5072445;28;20063;-81
2023/05/07 00:36:48;;;;;;;4.53;3.25;;;13.40;99.90;;;;;;5071035;28;20032;-82
2023/05/07 00:39:13;;;;;;;3.72;2.83;;;13.40;99.90;;;;;;5068083;28;20024;-81
2023/05/07 00:41:39;;;;;;;5.38;3.55;;;13.40;99.90;;;;;;5071718;28;20472;-74
2023/05/07 00:44:05;;;;;;;3.13;2.78;;;13.40;99.90;;;;;;5060833;28;20466;-82
2023/05/07 00:46:32;;;;;;;3.45;2.97;;;13.40;99.90;;;;;;5064116;28;20055;-82
2023/05/07 00:48:58;;;;;;;4.18;3.20;;;13.40;99.90;;;;;;5066044;28;20250;-83
2023/05/07 00:51:27;;;;;;;5.55;3.80;;;13.40;99.90;;;;;;5064790;28;20071;-82
2023/05/07 00:53:53;;;;;;;3.72;3.10;;;13.30;99.90;;;;;;5071204;28;20028;-83
2023/05/07 00:56:20;;;;;;;4.10;3.40;;;13.30;99.90;;;;;;5067716;28;20036;-82
2023/05/07 00:58:46;;;;;;;4.13;3.08;;;13.30;99.90;;;;;;5067880;28;20111;-82
2023/05/07 01:01:11;;;;;;;3.55;3.05;;;13.30;99.90;;;;;;5073018;28;20159;-83
2023/05/07 01:03:37;;;;;;;3.95;3.08;;;13.20;99.90;;;;;;5072329;28;20422;-73
2023/05/07 01:06:04;;;;;;;4.95;2.60;;;13.20;99.90;;;;;;5072390;28;20504;-83
2023/05/07 01:08:32;;;;;;;5.07;2.92;;;13.20;99.90;;;;;;5072140;28;20059;-83
2023/05/07 01:10:58;;;;;;;3.63;3.17;;;13.20;99.90;;;;;;5058509;28;20608;-79
2023/05/07 01:13:25;;;;;;;5.70;2.75;;;13.20;99.90;;;;;;5064521;28;20020;-83
2023/05/07 01:15:51;;;;;;;3.60;2.95;;;13.10;99.90;;;;;;5071254;28;20066;-83
2023/05/07 01:18:16;;;;;;;5.90;3.08;;;13.10;99.90;;;;;;5071825;28;20028;-82
2023/05/07 01:20:42;;;;;;;5.00;3.00;;;13.10;99.90;;;;;;5071893;28;20035;-83
2023/05/07 01:23:10;;;;;;;7.10;3.78;;;13.00;99.90;;;;;;5076677;28;20028;-84
2023/05/07 01:25:36;;;;;;;4.20;3.53;;;13.00;99.90;;;;;;5073386;28;20029;-83
2023/05/07 01:28:02;;;;;;;5.75;3.80;;;13.00;99.90;;;;;;5067691;28;20041;-79
2023/05/07 01:30:28;;;;;;;4.90;4.30;;;;;;;;;;5066908;28;20037;-80
2023/05/07 01:32:58;;;;;;;4.93;3.63;;;;;;;;;;5059856;28;20028;-81
2023/05/07 01:35:30;;;;;;;4.53;3.35;;;;;;;;;;5077252;28;20033;-79
2023/05/07 01:37:56;;;;;;;3.40;3.10;;;;;;;;;;5075540;28;20052;-81
2023/05/07 01:40:23;;;;;;;5.65;3.58;;;;;;;;;;5046084;28;20029;-81
2023/05/07 01:42:49;;;;;;;4.88;3.83;;;;;;;;;;5075559;28;20020;-80
2023/05/07 01:45:15;;;;;;;5.53;3.47;;;;;;;;;;5061554;28;20109;-80
2023/05/07 01:47:41;;;;;;;6.80;3.42;;;;;;;;;;5066149;28;20131;-74
2023/05/07 01:50:08;;;;;;;4.97;3.47;;;;;;;;;;5077321;28;20043;-82
2023/05/07 01:52:34;;;;;;;3.67;3.10;;;;;;;;;;5075813;28;20043;-83
2023/05/07 01:55:00;;;;;;;6.10;3.53;;;;;;;;;;5076374;28;20082;-83
2023/05/07 01:57:26;;;;;;;4.22;3.83;;;;;;;;;;5075230;28;20028;-80
2023/05/07 01:59:52;;;;;;;8.05;3.72;;;;;;;;;;5072650;28;20029;-83
2023/05/07 02:02:18;;;;;;;4.63;3.67;;;;;;;;;;5075870;28;20032;-83
2023/05/07 02:04:44;;;;;;;4.47;3.70;;;;;;;;;;5081581;28;20027;-81
2023/05/07 02:07:10;;;;;;;7.07;3.83;;;;;;;;;;5094617;28;20039;-80
2023/05/07 02:09:36;;;;;;;5.40;3.63;;;;;;;;;;5081214;28;20032;-83
2023/05/07 02:12:02;;;;;;;5.35;3.92;;;;;;;;;;5083131;28;20051;-81
2023/05/07 02:14:28;;;;;;;4.45;3.55;;;;;;;;;;5082362;28;20005;-80
2023/05/07 02:16:54;;;;;;;4.68;3.65;;;;;;;;;;5086112;28;20035;-83
2023/05/07 02:19:21;;;;;;;7.38;3.90;;;;;;;;;;5068240;28;20016;-82
2023/05/07 02:21:47;;;;;;;6.47;4.38;;;;;;;;;;5063288;28;20093;-81
2023/05/07 02:24:13;;;;;;;6.40;4.05;;;;;;;;;;5072655;28;20025;-82
2023/05/07 02:26:41;;;;;;;6.53;4.07;;;;;;;;;;5064320;28;20108;-74
2023/05/07 02:29:07;;;;;;;5.07;3.97;;;;;;;;;;5079180;28;20032;-82
2023/05/07 02:31:36;;;;;;;5.75;4.00;;;;;;;;;;5075148;28;20028;-82
2023/05/07 02:34:02;;;;;;;7.03;4.85;;;;;;;;;;5073501;28;20107;-81
2023/05/07 02:36:28;;;;;;;7.30;4.65;;;;;;;;;;5069638;28;20555;-82
2023/05/07 02:38:54;;;;;;;6.72;4.85;;;;;;;;;;5073088;28;20025;-81
2023/05/07 02:41:20;;;;;;;7.03;4.85;;;;;;;;;;5075561;28;20509;-81
2023/05/07 02:43:46;;;;;;;5.22;4.35;;;;;;;;;;5070869;28;20051;-83
2023/05/07 02:46:12;;;;;;;6.53;4.25;;;;;;;;;;5063899;28;20084;-83
2023/05/07 02:48:38;;;;;;;6.18;4.60;;;;;;;;;;5055802;28;20097;-74
2023/05/07 02:51:05;;;;;;;5.78;4.72;;;;;;;;;;5073975;28;20446;-82
2023/05/07 02:53:31;;;;;;;7.28;4.72;;;12.50;99.90;;;;;;5068483;28;20032;-82
2023/05/07 02:55:57;;;;;;;5.65;4.43;;;12.40;99.90;;;;;;5073454;28;20845;-82
2023/05/07 02:58:24;;;;;;;4.95;4.00;;;12.30;99.90;;;;;;5070591;28;20115;-82
2023/05/07 03:00:49;;;;;;;5.88;4.60;;;12.20;99.90;;;;;;5073354;28;20086;-82
2023/05/07 03:03:15;;;;;;;5.85;4.55;;;12.10;99.90;;;;;;5073470;28;20060;-80
2023/05/07 03:05:41;;;;;;;4.93;3.80;;;12.10;99.90;;;;;;5072885;28;20032;-73
2023/05/07 03:08:07;;;;;;;4.95;4.30;;;12.10;99.90;;;;;;5059879;28;20032;-80
2023/05/07 03:10:33;;;;;;;6.80;4.80;;;12.10;99.90;;;;;;5068126;28;20032;-81
2023/05/07 03:12:59;;;;;;;9.25;4.70;;;12.00;99.90;;;;;;5070789;28;20024;-82
2023/05/07 03:15:24;;;;;;;5.38;3.92;;;12.00;99.90;;;;;;5063707;28;20031;-82
2023/05/07 03:17:50;;;;;;;4.88;3.88;;;12.00;99.90;;;;;;5072685;28;20028;-80
2023/05/07 03:20:15;;;;;;;5.20;4.10;;;11.90;99.90;;;;;;5073870;28;20020;-81
2023/05/07 03:22:41;;;;;;;6.68;3.63;;;11.90;99.90;;;;;;5076376;28;20024;-73
2023/05/07 03:25:08;;;;;;;4.68;3.80;;;11.80;99.90;;;;;;5071778;28;20032;-80
2023/05/07 03:27:34;;;;;;;4.35;3.55;;;11.70;99.90;;;;;;5076103;28;20485;-81
2023/05/07 03:30:00;;;;;;;5.25;4.10;;;11.70;99.90;;;;;;5055038;28;20047;-82
2023/05/07 03:32:26;;;;;;;4.18;3.75;;;11.60;99.90;;;;;;5073185;28;20036;-81
2023/05/07 03:34:51;;;;;;;5.28;3.70;;;11.60;99.90;;;;;;5072845;28;20381;-81
2023/05/07 03:37:17;;;;;;;7.13;3.88;;;11.60;99.90;;;;;;5073531;28;20454;-82
2023/05/07 03:39:43;;;;;;;6.53;4.20;;;11.60;99.90;;;;;;5073102;28;20111;-81
2023/05/07 03:42:08;;;;;;;8.52;4.82;;;11.50;99.90;;;;;;5073304;28;20036;-82
2023/05/07 03:44:36;;;;;;;6.55;4.07;;;11.50;99.90;;;;;;5068736;28;20028;-82
2023/05/07 03:47:01;;;;;;;6.32;3.97;;;11.60;99.90;;;;;;5072272;28;20082;-82
2023/05/07 03:49:27;;;;;;;4.95;3.55;;;11.50;99.90;;;;;;5074001;28;20024;-82
2023/05/07 03:51:53;;;;;;;4.95;3.40;;;11.60;99.90;;;;;;5072731;28;20028;-83
2023/05/07 03:54:18;;;;;;;6.95;3.70;;;11.60;99.90;;;;;;5073774;28;20027;-82
2023/05/07 03:56:44;;;;;;;5.00;4.05;;;11.60;99.90;;;;;;5071617;28;20112;-81
2023/05/07 03:59:09;;;;;;;5.82;3.42;;;11.60;99.90;;;;;;5070542;28;20032;-80
2023/05/07 04:01:35;;;;;;;4.13;3.20;;;11.60;99.90;;;;;;5068648;28;20457;-80
2023/05/07 04:04:01;;;;;;;5.25;3.42;;;11.60;99.90;;;;;;5072071;28;20048;-82
2023/05/07 04:06:27;;;;;;;4.70;3.75;;;11.60;99.90;;;;;;5073159;28;20036;-82
2023/05/07 04:08:53;;;;;;;3.35;3.05;;;11.60;99.90;;;;;;5072116;28;20028;-81
2023/05/07 04:11:18;;;;;;;4.20;3.28;;;11.50;99.90;;;;;;5057075;28;20017;-83
2023/05/07 04:13:44;;;;;;;5.40;3.75;;;11.50;99.90;;;;;;5061341;28;20033;-83
2023/05/07 04:16:09;;;;;;;5.38;3.63;;;11.50;99.90;;;;;;5073585;28;20480;-84
2023/05/07 04:18:35;;;;;;;4.68;3.58;;;11.50;99.90;;;;;;5067310;28;20158;-81
2023/05/07 04:21:01;;;;;;;8.23;4.05;;;11.50;99.90;;;;;;5070435;28;20107;-83
2023/05/07 04:23:26;;;;;;;6.05;3.33;;;11.50;99.90;;;;;;5052091;28;20031;-80
2023/05/07 04:25:54;;;;;;;4.55;3.38;;;11.50;99.90;;;;;;5053858;28;20054;-83
2023/05/07 04:28:20;;;;;;;4.35;3.88;;;11.50;99.90;;;;;;5079147;28;20060;-80
2023/05/07 04:30:46;;;;;;;4.82;3.47;;;11.60;99.90;;;;;;5072908;28;20033;-82
2023/05/07 04:33:11;;;;;;;4.65;4.00;;;11.60;99.90;;;;;;5073813;28;20021;-83
2023/05/07 04:35:37;;;;;;;5.78;3.97;;;11.60;99.90;;;;;;5067121;28;20025;-83
2023/05/07 04:38:03;;;;;;;5.28;4.07;;;11.70;99.90;;;;;;5072727;28;20469;-83
2023/05/07 04:40:29;;;;;;;4.65;3.83;;;11.70;99.90;;;;;;5073720;28;20480;-83
2023/05/07 04:42:54;;;;;;;5.15;4.00;;;11.80;99.90;;;;;;5072124;28;20107;-83
2023/05/07 04:45:20;;;;;;;5.43;3.72;;;11.80;99.90;;;;;;5057348;28;20113;-80
2023/05/07 04:47:45;;;;;;;5.00;3.63;;;11.90;99.90;;;;;;5065292;28;20416;-83
2023/05/07 04:50:11;;;;;;;7.30;3.83;;;12.00;99.90;;;;;;5073510;28;20531;-75
2023/05/07 04:52:37;;;;;;;4.80;3.92;;;12.00;99.90;;;;;;5066150;28;20052;-73
2023/05/07 04:55:02;;;;;;;4.45;3.72;;;12.10;99.90;;;;;;5070667;28;20513;-74
2023/05/07 04:57:28;;;;;;;5.30;4.00;;;12.10;99.90;;;;;;5070776;28;20037;-74
2023/05/07 04:59:54;;;;;;;4.13;3.30;;;12.10;99.90;;;;;;5070659;28;20052;-73
2023/05/07 05:02:20;;;;;;;3.42;3.10;;;12.10;99.90;;;;;;5071455;28;20029;-81
2023/05/07 05:04:45;;;;;;;5.13;3.40;;;12.10;99.90;;;;;;5072595;28;20031;-81
2023/05/07 05:07:11;;;;;;;4.13;3.28;;;12.10;99.90;;;;;;5070291;28;20032;-80
2023/05/07 05:09:37;;;;;;;4.72;3.90;;;12.10;99.90;;;;;;5066386;28;20461;-83
2023/05/07 05:12:02;;;;;;;4.68;3.53;;;12.10;99.90;;;;;;5065506;28;20032;-83
2023/05/07 05:14:28;;;;;;;4.03;3.40;;;12.10;99.90;;;;;;5076992;28;20028;-81
2023/05/07 05:16:54;;;;;;;4.30;3.80;;;12.10;99.90;;;;;;5076417;28;20036;-83
2023/05/07 05:19:20;;;;;;;5.75;3.67;;;12.10;99.90;;;;;;5077348;28;20094;-83
2023/05/07 05:21:45;;;;;;;7.05;3.90;;;12.20;99.90;;;;;;5076461;28;20051;-81
2023/05/07 05:24:11;;;;;;;4.63;3.80;;;12.20;99.90;;;;;;5082306;28;20024;-81
2023/05/07 05:26:36;;;;;;;5.47;3.30;;;12.30;99.90;;;;;;5092777;28;20036;-81
2023/05/07 05:29:02;;;;;;;9.02;3.95;;;12.40;99.90;;;;;;5095660;28;20040;-76
2023/05/07 05:31:28;;;;;;;4.07;3.30;;;12.50;99.90;;;;;;5086480;28;20047;-80
2023/05/07 05:33:53;;;;;;;5.70;3.90;;;12.60;99.90;;;;;;5091770;28;20024;-81
2023/05/07 05:36:19;;;;;;;6.15;4.25;;;12.80;99.90;;;;;;5094330;28;20024;-80
2023/05/07 05:38:44;;;;;;;7.03;4.13;;;12.90;99.90;;;;;;5075297;28;20029;-83
2023/05/07 05:41:10;;;;;;;4.15;3.42;;;13.10;99.90;;;;;;5074873;28;20449;-83
2023/05/07 05:43:36;;;;;;;5.35;4.10;;;13.20;99.90;;;;;;5072481;28;20028;-83
2023/05/07 05:46:02;;;;;;;5.88;4.13;;;13.40;99.90;;;;;;5072887;28;20077;-77
2023/05/07 05:48:28;;;;;;;5.72;4.15;;;13.60;99.90;;;;;;5066535;28;20116;-77
2023/05/07 05:50:54;;;;;;;7.15;4.72;;;13.80;99.90;;;;;;5071843;28;20032;-77
2023/05/07 05:53:20;;;;;;;5.68;4.78;;;13.90;99.90;;;;;;5072505;28;20025;-78
2023/05/07 05:55:46;;;;;;;9.45;5.43;;;14.10;99.90;;;;;;5073377;28;20021;-82
2023/05/07 05:58:11;;;;;;;9.38;5.05;;;14.30;99.90;;;;;;5073741;28;20028;-83
2023/05/07 06:00:37;;;;;;;6.53;5.45;;;14.30;99.90;;;;;;5074018;28;20020;-73
2023/05/07 06:03:03;;;;;;;7.30;5.32;;;14.40;99.90;;;;;;5072677;28;20039;-81
2023/05/07 06:05:28;;;;;;;6.90;5.15;;;14.50;99.90;;;;;;5064734;28;20531;-84
2023/05/07 06:07:54;;;;;;;10.98;5.07;;;14.50;99.90;;;;;;5065638;28;20115;-83
2023/05/07 06:10:19;;;;;;;7.20;5.10;;;14.60;99.90;;;;;;5073877;28;20086;-83
2023/05/07 06:12:45;;;;;;;9.40;4.90;;;14.70;99.90;;;;;;5072977;28;20084;-82
2023/05/07 06:15:10;;;;;;;9.35;5.88;;;14.80;99.90;;;;;;5072100;28;20028;-85
2023/05/07 06:17:36;;;;;;;8.30;5.65;;;14.90;99.90;;;;;;5062528;28;20037;-89
2023/05/07 06:20:02;;;;;;;7.57;5.25;;;15.10;99.90;;;;;;5068858;28;20024;-90
2023/05/07 06:22:27;;;;;;;7.43;5.32;;;15.20;99.90;;;;;;5065288;28;20032;-88
2023/05/07 06:24:53;;;;;;;9.80;5.18;;;15.20;99.90;;;;;;5068224;28;20547;-88
2023/05/07 06:27:18;;;;;;;8.88;6.18;;;15.30;99.90;;;;;;5072114;28;20103;-75
2023/05/07 06:29:44;;;;;;;9.77;6.55;;;15.30;99.90;;;;;;5069570;28;20054;-74
2023/05/07 06:32:11;;;;;;;10.10;6.28;;;15.30;99.90;;;;;;5068092;28;20025;-75
2023/05/07 06:34:38;;;;;;;9.55;6.65;;;15.20;99.90;;;;;;5069475;28;20032;-76
2023/05/07 06:37:04;;;;;;;9.27;5.30;;;15.10;99.90;;;;;;5068569;28;20615;-76
2023/05/07 06:39:29;;;;;;;7.80;5.72;;;15.00;99.90;;;;;;5071608;28;20096;-90
2023/05/07 06:41:55;;;;;;;8.48;6.35;;;15.00;99.90;;;;;;5063787;28;20037;-81
2023/05/07 06:44:20;;;;;;;9.07;6.32;;;15.00;99.90;;;;;;5072385;28;20016;-79
2023/05/07 06:46:46;;;;;;;11.60;6.65;;;15.00;99.90;;;;;;5068264;28;20063;-79
2023/05/07 06:49:15;;;;;;;10.27;6.63;;;15.00;99.90;;;;;;5072436;28;20028;-81
2023/05/07 06:51:41;;;;;;;9.07;6.93;;;15.10;99.90;;;;;;5071957;28;20025;-76
2023/05/07 06:54:06;;;;;;;7.97;6.28;;;15.10;99.90;;;;;;5091169;28;20013;-79
2023/05/07 06:56:33;;;;;;;7.72;6.40;;;15.10;99.90;;;;;;5086475;28;20016;-74
2023/05/07 06:59:00;;;;;;;11.50;6.85;;;15.20;99.90;;;;;;5080710;28;20074;-78
2023/05/07 07:01:26;;;;;;;10.80;6.60;;;15.40;99.90;;;;;;5085492;28;20470;-80
2023/05/07 07:03:51;;;;;;;9.85;5.97;;;15.50;99.90;;;;;;5073928;28;20086;-76
2023/05/07 07:06:17;;;;;;;7.25;5.80;;;15.70;99.90;;;;;;5073670;28;20036;-79
2023/05/07 07:08:42;;;;;;;10.77;6.50;;;15.90;99.90;;;;;;5079773;28;20134;-77
2023/05/07 07:11:10;;;;;;;12.73;5.78;;;16.00;99.90;;;;;;5088324;28;20084;-77
2023/05/07 07:13:36;;;;;;;6.97;5.43;;;16.20;99.90;;;;;;5076485;28;20104;-78
2023/05/07 07:16:02;;;;;;;7.47;5.88;;;16.40;99.90;;;;;;5069191;28;20020;-76
2023/05/07 07:18:28;;;;;;;7.00;5.63;;;16.60;99.90;;;;;;5073260;28;20074;-76
2023/05/07 07:20:54;;;;;;;11.52;5.50;;;16.70;99.90;;;;;;5071595;28;20020;-77
2023/05/07 07:23:19;;;;;;;8.02;5.28;;;16.90;99.90;;;;;;5078572;28;20023;-75
2023/05/07 07:25:45;;;;;;;6.43;4.68;;;17.10;99.90;;;;;;5067063;28;20021;-76
2023/05/07 07:28:11;;;;;;;5.53;4.53;;;17.30;99.90;;;;;;5071297;28;20037;-71
2023/05/07 07:30:38;;;;;;;6.93;4.38;;;17.50;99.90;;;;;;5066424;28;20032;-79
2023/05/07 07:33:03;;;;;;;8.30;4.72;;;17.80;99.90;;;;;;5065070;28;20143;-78
2023/05/07 07:35:29;;;;;;;9.23;4.35;;;18.20;99.90;;;;;;5073988;28;20044;-87
2023/05/07 07:37:55;;;;;;;6.47;3.90;;;18.40;99.90;;;;;;5070392;28;20048;-80
2023/05/07 07:40:21;;;;;;;8.60;4.10;;;18.80;99.90;;;;;;5069145;28;20074;-79
2023/05/07 07:42:47;;;;;;;5.90;3.40;;;19.00;99.90;;;;;;5068056;28;20052;-79
2023/05/07 07:45:12;;;;;;;7.88;3.53;;;19.20;99.90;;;;;;5068021;28;20511;-79
2023/05/07 07:47:39;;;;;;;4.38;3.50;;;19.50;99.90;;;;;;5058632;28;20048;-73
2023/05/07 07:50:05;;;;;;;3.05;2.75;;;19.80;99.90;;;;;;5041776;28;20386;-68
2023/05/07 07:52:31;;;;;;;3.50;2.42;;;20.10;99.90;;;;;;5053534;28;20092;-76
2023/05/07 07:54:57;;;;;;;3.35;3.03;;;;;;;;;;5035529;28;20025;-75
2023/05/07 07:57:22;;;;;;;6.30;3.13;;;21.10;99.90;;;;;;5041966;28;20029;-79
2023/05/07 07:59:48;;;;;;;4.47;3.13;;;21.00;99.90;;;;;;5049517;28;20029;-76
2023/05/07 08:02:14;;;;;;;6.25;2.95;;;21.20;99.90;;;;;;5051147;28;20082;-79
2023/05/07 08:04:40;;;;;;;3.60;2.40;;;21.30;99.90;;;;;;5051834;28;20028;-76
2023/05/07 08:07:05;;;;;;;3.05;2.47;;;21.40;99.90;;;;;;5053309;28;20036;-75
2023/05/07 08:09:31;;;;;;;2.63;1.90;;;21.50;99.90;;;;;;5053144;28;20021;-71
2023/05/07 08:11:57;;;;;;;2.30;2.10;;;21.70;99.90;;;;;;5049861;28;20395;-75
2023/05/07 08:14:23;;;;;;;2.72;2.33;;;21.90;99.90;;;;;;5051165;28;20402;-77
2023/05/07 08:16:48;;;;;;;2.65;2.10;;;22.00;99.90;;;;;;5049183;28;20366;-74
2023/05/07 08:19:14;;;;;;;3.65;2.20;;;22.00;99.90;;;;;;5052207;28;20048;-78
2023/05/07 08:21:40;;;;;;;3.13;1.95;;;22.20;99.90;;;;;;5053193;28;20390;-74
2023/05/07 08:24:06;;;;;;;2.78;2.10;;;22.30;99.90;;;;;;5046023;28;20040;-76
2023/05/07 08:26:32;;;;;;;3.88;2.10;;;22.40;99.90;;;;;;5052241;28;20116;-82
2023/05/07 08:28:57;;;;;;;2.17;1.75;;;22.50;99.90;;;;;;5052414;28;20679;-82
2023/05/07 08:31:23;;;;;;;3.33;2.40;;;22.60;99.90;;;;;;5051006;28;20025;-78
2023/05/07 08:33:49;;;;;;;3.40;2.00;;;;;;;;;;5046050;28;20032;-82
2023/05/07 08:36:15;;;;;;;3.50;2.53;;;;;;;;;;5046160;28;20032;-79
2023/05/07 08:38:42;;;;;;;5.13;3.20;;;;;;;;;;5050027;28;20033;-75
2023/05/07 08:41:10;;;;;;;4.00;2.08;;;;;;;;;;5046595;28;20995;-72
2023/05/07 08:43:36;;;;;;;4.38;2.60;;;;;;;;;;5050185;28;20052;-71
2023/05/07 08:46:03;;;;;;;4.28;2.15;;;;;;;;;;5050154;28;20363;-73
2023/05/07 08:48:30;;;;;;;3.38;2.28;;;;;;;;;;5051394;28;20021;-78
2023/05/07 08:50:56;;;;;;;3.00;2.03;;;;;;;;;;5050968;28;20504;-74
2023/05/07 08:53:22;;;;;;;3.25;2.40;;;;;;;;;;5050854;28;20033;-70
2023/05/07 08:55:48;;;;;;;3.08;1.88;;;;;;;;;;5043216;28;20080;-70
2023/05/07 08:58:14;;;;;;;5.90;2.22;;;23.10;99.90;;;;;;5042744;28;20047;-72
2023/05/07 09:00:41;;;;;;;3.65;2.42;;;23.20;99.90;;;;;;5063218;28;20104;-74
2023/05/07 09:03:07;;;;;;;3.63;2.17;;;23.20;99.90;;;;;;5050843;28;20025;-71
2023/05/07 09:05:32;;;;;;;5.30;1.90;;;23.10;99.90;;;;;;5051381;28;20563;-71
2023/05/07 09:08:07;;;;;;;3.90;1.83;;;23.20;99.90;;;;;;5050230;28;20037;-69
2023/05/07 09:10:35;;;;;;;5.18;2.17;;;23.30;99.90;;;;;;5056715;28;20095;-73
2023/05/07 09:13:04;;;;;;;2.95;2.10;;;;;;;;;;5036787;28;20172;-70
2023/05/07 09:15:30;;;;;;;2.22;1.95;;;;;;;;;;5050917;28;20423;-67
2023/05/07 09:18:01;;;;;;;5.45;1.90;;;;;;;;;;5060014;28;20084;-71
2023/05/07 09:20:26;;;;;;;2.47;1.83;;;23.60;99.90;;;;;;5050922;28;20021;-71
2023/05/07 09:22:54;;;;;;;3.60;1.60;;;23.90;99.90;;;;;;5049836;28;20029;-73
2023/05/07 09:25:29;;;;;;;1.88;1.67;;;23.90;99.90;;;;;;5051021;28;20029;-71
2023/05/07 09:27:55;;;;;;;2.70;1.92;;;24.00;99.90;;;;;;5056515;28;20044;-72
2023/05/07 09:30:20;;;;;;;3.13;1.90;;;24.00;99.90;;;;;;5050906;28;20025;-72
2023/05/07 09:32:46;;;;;;;2.53;2.08;;;24.20;99.90;;;;;;5044400;28;20029;-73
2023/05/07 09:35:16;;;;;;;2.42;1.75;;;24.30;99.90;;;;;;5059632;28;20446;-70
2023/05/07 09:37:42;;;;;;;3.70;2.25;;;24.20;99.90;;;;;;5049552;28;20115;-73
2023/05/07 09:40:19;;;;;;;3.72;2.00;;;24.30;99.90;;;;;;5050721;28;20055;-74
2023/05/07 09:42:46;;;;;;;5.95;2.25;;;24.50;99.90;;;;;;5049742;28;20017;-73
2023/05/07 09:45:12;;;;;;;3.17;1.92;;;24.50;99.90;;;;;;5050718;28;20021;-73
2023/05/07 09:47:40;;;;;;;2.45;1.60;;;24.50;99.90;;;;;;5049811;28;20056;-73
2023/05/07 09:50:08;;;;;;;5.10;2.30;;;24.50;99.60;;;;;;5056939;28;20036;-73
2023/05/07 09:52:35;;;;;;;3.45;1.60;;;24.60;98.10;;;;;;5052790;28;20060;-74
2023/05/07 09:55:02;;;;;;;3.28;2.05;;;24.60;97.10;;;;;;5039533;28;20025;-76
2023/05/07 09:57:29;;;;;;;6.22;1.85;;;24.70;96.50;;;;;;5053547;28;20029;-76
2023/05/07 09:59:58;;;;;;;3.40;1.73;;;24.80;96.60;;;;;;5048464;28;20485;-75
2023/05/07 10:02:27;;;;;;;2.90;1.67;;;24.90;96.50;;;;;;5043443;28;20100;-76
2023/05/07 10:04:54;;;;;;;3.08;1.88;;;24.90;98.20;;;;;;5052812;28;20381;-75
2023/05/07 10:07:20;;;;;;;2.08;1.88;;;25.00;97.80;;;;;;5054086;28;20068;-74
2023/05/07 10:09:46;;;;;;;3.00;1.50;;;25.10;99.90;;;;;;5057298;28;20025;-74
2023/05/07 10:12:12;;;;;;;4.68;1.73;;;25.20;99.90;;;;;;5053325;28;20040;-74
2023/05/07 10:14:38;;;;;;;3.15;1.70;;;25.30;99.90;;;;;;5054061;28;20052;-74
2023/05/07 10:17:03;;;;;;;3.80;1.67;;;25.50;99.60;;;;;;5054520;28;20104;-75
2023/05/07 10:19:30;;;;;;;4.78;1.98;;;25.60;96.70;;;;;;5057843;28;20029;-75
2023/05/07 10:22:04;;;;;;;3.33;1.95;;;25.70;99.90;;;;;;5052735;28;20025;-74
2023/05/07 10:24:33;;;;;;;4.07;1.77;;;;;;;;;;5051290;28;20021;-75
2023/05/07 10:27:01;;;;;;;5.53;1.65;;;26.00;90.80;;;;;;5066218;28;20033;-75
2023/05/07 10:29:27;;;;;;;2.35;1.92;;;26.20;90.10;;;;;;5056011;28;20029;-75
2023/05/07 10:32:11;;;;;;;1.50;1.40;;;26.40;89.80;;;;;;5051143;28;20021;-73
2023/05/07 10:34:41;;;;;;;3.50;1.95;;;26.50;90.00;;;;;;5062679;28;20029;-75
2023/05/07 10:37:08;;;;;;;2.67;1.70;;;26.80;89.20;;;;;;5051317;28;20035;-74
2023/05/07 10:39:35;;;;;;;2.08;1.95;;;;;;;;;;5060068;28;20021;-73
2023/05/07 10:42:11;;;;;;;1.70;1.60;;;27.80;87.80;;;;;;5057840;28;20180;-74
2023/05/07 10:44:37;;;;;;;4.38;1.92;;;27.70;88.10;;;;;;5052205;28;20048;-74
2023/05/07 10:47:11;;;;;;;1.50;1.40;;;27.90;86.10;;;;;;5050628;28;20089;-74
2023/05/07 10:50:05;;;;;;;3.67;1.95;;;27.90;85.10;;;;;;5052282;28;20106;-74
2023/05/07 10:52:31;;;;;;;2.78;1.80;;;27.80;83.30;;;;;;5042388;28;20578;-74
2023/05/07 10:55:21;;;;;;;3.17;1.95;;;27.60;83.70;;;;;;5051256;28;20029;-74
2023/05/07 10:57:46;;;;;;;2.03;1.63;;;27.50;83.30;;;;;;5039958;28;20385;-73
2023/05/07 11:00:27;;;;;;;2.03;1.60;;;27.40;82.40;;;;;;5052049;28;20025;-73
2023/05/07 11:02:59;;;;;;;3.00;1.80;;;27.30;79.40;;;;;;5051025;28;20029;-74
2023/05/07 11:05:25;;;;;;;3.13;1.70;;;27.30;79.30;;;;;;5051855;28;20228;-74
2023/05/07 11:08:01;;;;;;;4.32;1.90;;;27.50;79.50;;;;;;5050121;28;20112;-74
2023/05/07 11:10:58;;;;;;;2.03;1.58;;;27.70;78.60;;;;;;5051469;28;20036;-73
2023/05/07 11:13:55;;;;;;;4.50;2.00;;;28.00;78.00;;;;;;5051422;28;20025;-74
2023/05/07 11:16:26;;;;;;;2.95;1.80;;;28.20;77.10;;;;;;4992132;28;20044;-74
2023/05/07 11:18:55;;;;;;;2.47;1.52;;;28.20;77.20;;;;;;5055488;28;20056;-73
2023/05/07 11:21:36;;;;;;;1.88;1.38;;;28.40;76.30;;;;;;5051573;28;20265;-74
2023/05/07 11:24:03;;;;;;;3.00;1.83;;;28.70;75.80;;;;;;5050624;28;20260;-75
2023/05/07 11:26:31;;;;;;;1.70;1.60;;;28.90;74.80;;;;;;5051102;28;20041;-74
2023/05/07 11:28:57;;;;;;;1.85;1.63;;;28.80;74.70;;;;;;5057846;28;20029;-75
2023/05/07 11:31:25;;;;;;;3.83;1.67;;;28.80;73.40;;;;;;5048725;28;20025;-74
2023/05/07 11:33:52;;;;;;;1.58;1.42;;;28.80;73.10;;;;;;5062630;28;20102;-74
2023/05/07 11:36:20;;;;;;;2.45;1.50;;;28.80;72.60;;;;;;5051149;28;20363;-74
2023/05/07 11:38:46;;;;;;;3.67;1.67;;;28.60;73.80;;;;;;5050028;28;20025;-74
2023/05/07 11:41:11;;;;;;;3.45;1.85;;;28.20;75.20;;;;;;5050991;28;20432;-74
2023/05/07 11:43:37;;;;;;;5.22;2.08;;;27.80;75.10;;;;;;5050558;28;20366;-74
2023/05/07 11:46:10;;;;;;;3.70;1.60;;;27.40;76.20;;;;;;5050374;28;20033;-74
2023/05/07 11:48:36;;;;;;;2.42;1.88;;;27.00;77.60;;;;;;5048631;28;20412;-74
2023/05/07 11:51:04;;;;;;;2.72;1.80;;;26.60;78.30;;;;;;5050130;28;20021;-75
2023/05/07 11:53:42;;;;;;;2.20;2.00;;;26.30;78.90;;;;;;5050586;28;20175;-73
2023/05/07 11:56:09;;;;;;;2.17;1.92;;;25.90;79.30;;;;;;5050823;28;20048;-74
2023/05/07 11:58:35;;;;;;;4.65;2.03;;;25.50;80.00;;;;;;5047074;28;20040;-74
2023/05/07 12:01:00;;;;;;;2.53;2.00;;;25.20;81.00;;;;;;5050288;28;20020;-74
2023/05/07 12:03:26;;;;;;;4.38;1.77;;;25.00;81.90;;;;;;5047771;28;20390;-74
2023/05/07 12:05:52;;;;;;;3.67;1.90;;;24.80;82.10;;;;;;5050408;28;20041;-74
2023/05/07 12:08:19;;;;;;;5.00;2.08;;;24.40;82.10;;;;;;5050137;28;20039;-70
2023/05/07 12:10:47;;;;;;;2.80;2.10;;;24.20;83.30;;;;;;5049828;28;20029;-69
2023/05/07 12:13:20;;;;;;;4.68;1.70;;;23.90;83.40;;;;;;5050167;28;20101;-69
2023/05/07 12:15:46;;;;;;;3.17;2.05;;;23.70;84.10;;;;;;5050442;28;20101;-73
2023/05/07 12:18:13;;;;;;;4.43;1.77;;;23.50;85.10;;;;;;5054640;28;20033;-73
2023/05/07 12:20:39;;;;;;;2.75;1.27;;;23.40;86.30;;;;;;5050266;28;20033;-73
2023/05/07 12:23:05;;;;;;;2.80;1.58;;;23.20;86.60;;;;;;5052581;28;20033;-73
2023/05/07 12:25:47;;;;;;;7.07;2.20;;;22.90;87.40;;;;;;5050765;28;20048;-73
2023/05/07 12:28:15;;;;;;;11.13;3.83;;;22.40;93.20;;;;;;5055758;28;20418;-70
2023/05/07 12:30:41;;;;;;;7.97;3.58;;;21.40;99.90;;;;;;5050088;28;20051;-74
2023/05/07 12:33:08;;;;;;;7.70;3.65;;;20.40;99.90;;;;;;5055126;28;20089;-73
2023/05/07 12:35:41;;;;;;;6.03;2.92;;;19.60;99.90;;;;;;5056959;28;20040;-74
2023/05/07 12:38:14;;;;;;;6.03;3.05;;;19.00;99.90;;;;;;5028892;28;20039;-71
2023/05/07 12:40:50;;;;;;;7.30;2.75;;;18.50;99.90;;;;;;5036460;28;20422;-75
2023/05/07 12:43:26;;;;;;;10.63;4.40;;;;;;;;;;5052438;28;20029;-77
2023/05/07 12:45:54;;;;;;;8.15;3.83;;;;;;;;;;5049271;28;20029;-76
2023/05/07 12:48:21;;;;;;;8.48;3.83;;;;;;;;;;5049825;28;20119;-76
2023/05/07 12:50:53;;;;;;;9.32;4.47;;;;;;;;;;5050284;28;20021;-80
2023/05/07 12:53:21;;;;;;;9.30;5.30;;;;;;;;;;5050097;28;20025;-77
2023/05/07 12:55:48;;;;;;;4.90;2.75;;;;;;;;;;5045628;28;20509;-76
2023/05/07 12:58:24;;;;;;;6.25;2.63;;;16.30;99.90;;;;;;5050958;28;20033;-77
2023/05/07 13:00:51;;;;;;;6.78;3.03;;;;;;;;;;5051756;28;20025;-76
2023/05/07 13:03:23;;;;;;;7.30;2.10;;;;;;;;;;5056088;28;20049;-76